TimeCDT,TemperatureF,Dew PointF,Humidity,Sea Level PressureIn,VisibilityMPH,Wind Direction,Wind SpeedMPH,Gust SpeedMPH,PrecipitationIn,Events,Conditions,WindDirDegrees,DateUTC
12:56 AM,34.0,30.9,89,29.73,10.0,East,20.7,26.5,0.00,,Overcast,90,2013-04-14 05:56:00
1:56 AM,33.1,30.0,89,29.73,10.0,East,18.4,-,N/A,,Mostly Cloudy,90,2013-04-14 06:56:00
2:56 AM,34.0,30.0,85,29.70,10.0,East,21.9,-,N/A,,Overcast,90,2013-04-14 07:56:00
3:56 AM,34.0,30.9,89,29.65,10.0,East,21.9,28.8,0.00,,Overcast,90,2013-04-14 08:56:00
4:56 AM,34.0,30.9,89,29.61,10.0,East,23.0,29.9,N/A,,Overcast,90,2013-04-14 09:56:00
5:06 AM,33.8,30.2,87,29.55,10.0,East,24.2,31.1,N/A,,Overcast,90,2013-04-14 10:06:00
5:56 AM,34.0,32.0,92,29.57,10.0,East,23.0,-,N/A,,Overcast,90,2013-04-14 10:56:00
6:56 AM,34.0,32.0,92,29.53,10.0,East,24.2,-,N/A,,Overcast,90,2013-04-14 11:56:00
7:56 AM,34.0,33.1,96,29.52,10.0,East,21.9,29.9,N/A,,Overcast,100,2013-04-14 12:56:00
8:04 AM,33.8,32.0,93,29.47,10.0,East,20.7,32.2,N/A,,Overcast,100,2013-04-14 13:04:00
8:56 AM,33.8,33.8,100,29.46,6.0,East,18.4,-,N/A,,Overcast,90,2013-04-14 13:56:00
9:56 AM,35.1,34.0,96,29.47,5.0,East,17.3,-,N/A,,Overcast,90,2013-04-14 14:56:00
10:56 AM,35.1,34.0,96,29.44,4.0,East,20.7,-,N/A,,Overcast,90,2013-04-14 15:56:00
11:56 AM,35.1,34.0,96,29.44,4.0,ESE,17.3,25.3,0.00,Rain,Light Rain,110,2013-04-14 16:56:00
12:56 PM,37.0,36.0,96,29.35,3.0,East,17.3,25.3,0.02,Rain,Light Rain,90,2013-04-14 17:56:00
1:56 PM,37.0,36.0,96,29.39,3.0,East,8.1,-,0.00,,Overcast,100,2013-04-14 18:56:00
2:33 PM,37.4,35.6,93,29.35,2.5,East,3.5,-,N/A,,Overcast,90,2013-04-14 19:33:00
2:43 PM,37.4,37.4,100,29.35,1.8,Calm,Calm,-,0.00,,Light Drizzle,0,2013-04-14 19:43:00
2:56 PM,37.0,36.0,96,29.39,0.8,NE,3.5,-,0.01,,Light Drizzle,50,2013-04-14 19:56:00
3:15 PM,37.4,35.6,93,29.35,0.5,NNE,3.5,-,0.00,Fog,Light Drizzle,30,2013-04-14 20:15:00
3:20 PM,37.4,35.6,93,29.35,0.2,NE,4.6,-,0.00,Fog,Light Drizzle,50,2013-04-14 20:20:00
3:26 PM,35.6,35.6,100,29.35,0.2,NE,3.5,-,N/A,Fog,Light Drizzle,50,2013-04-14 20:26:00
3:45 PM,37.4,37.4,100,29.36,0.2,Calm,Calm,-,0.00,Fog,Fog,0,2013-04-14 20:45:00
3:56 PM,37.9,37.9,100,29.39,0.5,Calm,Calm,-,0.00,Fog,Fog,0,2013-04-14 20:56:00
4:10 PM,39.2,39.2,100,29.36,1.2,WSW,8.1,-,N/A,,Overcast,240,2013-04-14 21:10:00
4:12 PM,41.0,39.2,93,29.36,3.0,SW,11.5,18.4,N/A,,Overcast,230,2013-04-14 21:12:00
4:56 PM,39.0,36.0,89,29.42,10.0,WSW,8.1,19.6,N/A,,Overcast,240,2013-04-14 21:56:00
5:05 PM,39.2,35.6,87,29.40,10.0,WSW,11.5,18.4,N/A,,Overcast,250,2013-04-14 22:05:00
5:16 PM,39.2,33.8,81,29.40,10.0,WSW,10.4,20.7,N/A,,Mostly Cloudy,250,2013-04-14 22:16:00
5:20 PM,39.2,33.8,81,29.41,10.0,WSW,16.1,23.0,N/A,,Mostly Cloudy,250,2013-04-14 22:20:00
5:46 PM,39.2,33.8,81,29.43,10.0,WSW,11.5,-,N/A,,Mostly Cloudy,250,2013-04-14 22:46:00
5:56 PM,39.0,34.0,82,29.47,10.0,WSW,9.2,-,N/A,,Mostly Cloudy,250,2013-04-14 22:56:00
6:51 PM,39.2,33.8,81,29.46,10.0,WSW,10.4,19.6,N/A,,Scattered Clouds,250,2013-04-14 23:51:00
6:56 PM,39.0,33.1,79,29.50,10.0,WSW,12.7,18.4,N/A,,Scattered Clouds,250,2013-04-14 23:56:00
6:58 PM,39.2,33.8,81,29.46,10.0,WSW,11.5,18.4,N/A,,Mostly Cloudy,240,2013-04-14 23:58:00
7:11 PM,39.2,32.0,75,29.47,10.0,West,13.8,25.3,N/A,,Scattered Clouds,260,2013-04-15 00:11:00
7:56 PM,37.0,30.0,76,29.53,10.0,West,12.7,23.0,N/A,,Partly Cloudy,260,2013-04-15 00:56:00
8:56 PM,36.0,28.9,76,29.54,10.0,WSW,11.5,23.0,N/A,,Partly Cloudy,250,2013-04-15 01:56:00
9:56 PM,36.0,28.9,76,29.56,10.0,WSW,12.7,23.0,N/A,,Clear,240,2013-04-15 02:56:00
10:56 PM,35.1,28.0,76,29.57,10.0,WSW,12.7,24.2,N/A,,Clear,250,2013-04-15 03:56:00
11:56 PM,33.1,26.1,75,29.59,10.0,West,17.3,29.9,N/A,,Scattered Clouds,260,2013-04-15 04:56:00